^^
Grace C. Lehan Memorial Weather Station Historical Data
Daily Summary for December 24, 2021 Units:  Metric    English   Both
Daily Weekly Monthly Yearly
  High: Low: Average:
Temperature: -1.4 °C -3.8 °C -2.8 °C
Dew Point: -3.7 °C -9 °C -4.8 °C
Humidity: 90% 57.1% 86%
Wind Speed: 3.2km/h 0km/h 0.3km/h
Wind Gust: 11.3km/h - -
Wind- - ESE
Pressure: 1022.2 hPa 1015.8 hPa -
Precipitation: 0 mm    
 
 
Tabular Data for December 24, 2021
Time Temperature Dew Point Pressure Wind Wind Speed Wind Gust Humidity Rainfall Rate (Hourly) solar
00:04 -1.7 °C -9 °C 1021.2 hPa NW 0.6 km/h 6.4 km/h 57.1% 0 mm 0 W/m2
00:09 -1.8 °C -8.8 °C 1021.2 hPa Calm   6.4 km/h 58.8% 0 mm 0 W/m2
00:14 -1.9 °C -8.5 °C 1021.2 hPa Calm   6.4 km/h 60.6% 0 mm 0 W/m2
00:19 -1.9 °C -8.1 °C 1021.2 hPa NW 0.2 km/h 6.4 km/h 63% 0 mm 0 W/m2
00:24 -2 °C -7.7 °C 1021.2 hPa NW 0.6 km/h 6.4 km/h 64.8% 0 mm 0 W/m2
00:29 -2.1 °C -7.5 °C 1021.2 hPa Calm   6.4 km/h 66.2% 0 mm 0 W/m2
00:34 -2.2 °C -7.3 °C 1021.6 hPa Calm   6.4 km/h 68% 0 mm 0 W/m2
00:39 -2.3 °C -6.9 °C 1021.2 hPa Calm   1.6 km/h 70.2% 0 mm 0 W/m2
00:44 -2.4 °C -6.7 °C 1021.6 hPa NW 0.3 km/h 3.2 km/h 71.9% 0 mm 0 W/m2
00:49 -2.5 °C -6.6 °C 1021.6 hPa Calm   3.2 km/h 73.3% 0 mm 0 W/m2
00:54 -2.6 °C -6.5 °C 1021.6 hPa Calm   3.2 km/h 74.6% 0 mm 0 W/m2
00:59 -2.7 °C -6.4 °C 1021.6 hPa Calm   3.2 km/h 75.7% 0 mm 0 W/m2
01:04 -2.8 °C -6.3 °C 1021.6 hPa Calm   3.2 km/h 76.9% 0 mm 0 W/m2
01:09 -2.9 °C -6.2 °C 1021.6 hPa NW 0.3 km/h 3.2 km/h 78.4% 0 mm 0 W/m2
01:14 -3 °C -6.1 °C 1021.6 hPa NW 0.2 km/h 3.2 km/h 79.5% 0 mm 0 W/m2
01:19 -3.1 °C -5.9 °C 1021.9 hPa NW 0.3 km/h 4.8 km/h 80.4% 0 mm 0 W/m2
01:24 -3.2 °C -5.9 °C 1021.9 hPa Calm   4.8 km/h 81.2% 0 mm 0 W/m2
01:29 -3.2 °C -5.8 °C 1022.2 hPa Calm   4.8 km/h 82% 0 mm 0 W/m2
01:34 -3.2 °C -5.7 °C 1022.2 hPa Calm   4.8 km/h 82.9% 0 mm 0 W/m2
01:39 -3.2 °C -5.7 °C 1022.2 hPa Calm     83% 0 mm 0 W/m2
01:44 -3.2 °C -5.6 °C 1022.2 hPa Calm     84% 0 mm 0 W/m2
01:49 -3.3 °C -5.6 °C 1021.9 hPa Calm     84% 0 mm 0 W/m2
01:54 -3.3 °C -5.7 °C 1021.9 hPa Calm     84% 0 mm 0 W/m2
01:59 -3.4 °C -5.6 °C 1021.9 hPa Calm     84.4% 0 mm 0 W/m2
02:04 -3.4 °C -5.6 °C 1021.9 hPa Calm     85% 0 mm 0 W/m2
02:09 -3.4 °C -5.6 °C 1021.6 hPa NW 0.2 km/h 3.2 km/h 85% 0 mm 0 W/m2
02:14 -3.6 °C -5.7 °C 1021.6 hPa Calm   3.2 km/h 85% 0 mm 0 W/m2
02:19 -3.6 °C -5.6 °C 1021.6 hPa Calm   3.2 km/h 85.9% 0 mm 0 W/m2
02:24 -3.7 °C -5.7 °C 1021.9 hPa Calm   3.2 km/h 86% 0 mm 0 W/m2
02:29 -3.7 °C -5.7 °C 1021.9 hPa NW 0.2 km/h 3.2 km/h 86% 0 mm 0 W/m2
02:34 -3.6 °C -5.6 °C 1021.9 hPa Calm   3.2 km/h 86.3% 0 mm 0 W/m2
02:39 -3.6 °C -5.4 °C 1021.9 hPa Calm     87% 0 mm 0 W/m2
02:44 -3.6 °C -5.4 °C 1021.9 hPa NW 0.2 km/h 3.2 km/h 87% 0 mm 0 W/m2
02:49 -3.6 °C -5.4 °C 1021.6 hPa Calm   3.2 km/h 87% 0 mm 0 W/m2
02:54 -3.6 °C -5.4 °C 1021.6 hPa Calm   3.2 km/h 87% 0 mm 0 W/m2
02:59 -3.6 °C -5.5 °C 1021.6 hPa Calm   3.2 km/h 86.8% 0 mm 0 W/m2
03:04 -3.7 °C -5.7 °C 1021.6 hPa Calm   3.2 km/h 86% 0 mm 0 W/m2
03:09 -3.7 °C -5.7 °C 1021.6 hPa Calm     86% 0 mm 0 W/m2
03:14 -3.7 °C -5.7 °C 1021.2 hPa Calm     86% 0 mm 0 W/m2
03:19 -3.8 °C -5.7 °C 1020.9 hPa Calm     86% 0 mm 0 W/m2
03:24 -3.8 °C -5.7 °C 1020.9 hPa Calm     86% 0 mm 0 W/m2
03:29 -3.7 °C -5.7 °C 1020.9 hPa Calm     86.3% 0 mm 0 W/m2
03:34 -3.7 °C -5.7 °C 1020.9 hPa Calm     86.4% 0 mm 0 W/m2
03:39 -3.8 °C -5.8 °C 1020.5 hPa NW 0.6 km/h 3.2 km/h 86% 0 mm 0 W/m2
03:44 -3.8 °C -5.8 °C 1020.9 hPa NW 0.2 km/h 3.2 km/h 86% 0 mm 0 W/m2
03:49 -3.8 °C -5.8 °C 1020.9 hPa Calm   3.2 km/h 86% 0 mm 0 W/m2
03:54 -3.8 °C -5.8 °C 1020.9 hPa Calm   3.2 km/h 86% 0 mm 0 W/m2
03:59 -3.8 °C -5.8 °C 1020.9 hPa Calm   3.2 km/h 86% 0 mm 0 W/m2
04:00 -3.8 °C -5.8 °C 1020.5 hPa Calm   3.2 km/h 86% 0 mm 0 W/m2
04:09 -3.8 °C -5.8 °C 1020.5 hPa Calm     86% 0 mm 0 W/m2
04:14 -3.8 °C -5.7 °C 1020.5 hPa Calm     86.6% 0 mm 0 W/m2
04:19 -3.8 °C -5.7 °C 1020.5 hPa Calm     87% 0 mm 0 W/m2
04:24 -3.8 °C -5.6 °C 1020.5 hPa Calm     87% 0 mm 0 W/m2
04:29 -3.7 °C -5.6 °C 1020.5 hPa Calm     87% 0 mm 0 W/m2
04:34 -3.7 °C -5.5 °C 1020.5 hPa Calm     87% 0 mm 0 W/m2
04:39 -3.7 °C -5.5 °C 1020.2 hPa Calm     87% 0 mm 0 W/m2
04:44 -3.7 °C -5.5 °C 1020.2 hPa NW 0.3 km/h 3.2 km/h 87% 0 mm 0 W/m2
04:49 -3.6 °C -5.4 °C 1020.2 hPa Calm   3.2 km/h 87% 0 mm 0 W/m2
04:54 -3.6 °C -5.4 °C 1020.2 hPa Calm   3.2 km/h 87% 0 mm 0 W/m2
04:59 -3.6 °C -5.3 °C 1020.2 hPa Calm   3.2 km/h 87.7% 0 mm 0 W/m2
05:04 -3.6 °C -5.3 °C 1020.2 hPa Calm   3.2 km/h 87.6% 0 mm 0 W/m2
05:09 -3.6 °C -5.4 °C 1019.9 hPa Calm     87% 0 mm 0 W/m2
05:14 -3.6 °C -5.3 °C 1020.2 hPa Calm     87.9% 0 mm 0 W/m2
05:19 -3.6 °C -5.3 °C 1020.2 hPa Calm     88% 0 mm 0 W/m2
05:24 -3.7 °C -5.3 °C 1019.9 hPa Calm     88% 0 mm 0 W/m2
05:29 -3.7 °C -5.3 °C 1020.2 hPa Calm     88% 0 mm 0 W/m2
05:34 -3.7 °C -5.3 °C 1020.2 hPa NW 0.3 km/h 3.2 km/h 88% 0 mm 0 W/m2
05:39 -3.7 °C -5.3 °C 1019.9 hPa Calm   3.2 km/h 88% 0 mm 0 W/m2
05:44 -3.7 °C -5.3 °C 1020.2 hPa Calm   3.2 km/h 88% 0 mm 0 W/m2
05:49 -3.7 °C -5.3 °C 1020.2 hPa Calm   3.2 km/h 88.5% 0 mm 0 W/m2
05:54 -3.7 °C -5.3 °C 1019.9 hPa Calm   3.2 km/h 88.2% 0 mm 0 W/m2
05:59 -3.7 °C -5.3 °C 1019.9 hPa Calm   3.2 km/h 88.6% 0 mm 0 W/m2
06:04 -3.7 °C -5.3 °C 1019.9 hPa Calm   3.2 km/h 89% 0 mm 0 W/m2
06:09 -3.7 °C -5.3 °C 1019.9 hPa Calm     89% 0 mm 0 W/m2
06:14 -3.7 °C -5.3 °C 1019.9 hPa Calm     89% 0 mm 0 W/m2
06:19 -3.8 °C -5.3 °C 1019.9 hPa Calm     89% 0 mm 0 W/m2
06:24 -3.8 °C -5.3 °C 1020.2 hPa Calm     89% 0 mm 0 W/m2
06:29 -3.7 °C -5.3 °C 1020.2 hPa Calm     89% 0 mm 0 W/m2
06:34 -3.7 °C -5.3 °C 1020.2 hPa Calm     89% 0 mm 0 W/m2
06:39 -3.7 °C -5.3 °C 1020.2 hPa Calm     89% 0 mm 0 W/m2
06:44 -3.7 °C -5.2 °C 1019.9 hPa Calm     89% 0 mm 0 W/m2
06:49 -3.7 °C -5.2 °C 1019.9 hPa Calm     89% 0 mm 0 W/m2
06:54 -3.7 °C -5.2 °C 1020.2 hPa Calm     89% 0 mm 0 W/m2
06:59 -3.6 °C -5.1 °C 1020.2 hPa Calm     89.6% 0 mm 0 W/m2
07:04 -3.6 °C -5 °C 1020.2 hPa Calm     90% 0 mm 0 W/m2
07:09 -3.6 °C -4.9 °C 1020.2 hPa Calm     90% 0 mm 0 W/m2
07:14 -3.6 °C -4.9 °C 1020.2 hPa NNW 0.6 km/h 4.8 km/h 90% 0 mm 0 W/m2
07:19 -3.6 °C -5 °C 1019.9 hPa Calm   4.8 km/h 89.6% 0 mm 0 W/m2
07:24 -3.6 °C -5.1 °C 1019.9 hPa NNW 0.2 km/h 4.8 km/h 89.3% 0 mm 0 W/m2
07:29 -3.6 °C -5.1 °C 1019.9 hPa Calm   4.8 km/h 89.1% 0 mm 0 W/m2
07:34 -3.6 °C -4.9 °C 1020.2 hPa Calm   4.8 km/h 90% 0 mm 0 W/m2
07:39 -3.6 °C -4.9 °C 1020.2 hPa Calm   1.6 km/h 90% 0 mm 0 W/m2
07:44 -3.5 °C -4.9 °C 1019.9 hPa NNW 0.2 km/h 3.2 km/h 90% 0 mm 0 W/m2
07:49 -3.5 °C -4.9 °C 1020.2 hPa Calm   3.2 km/h 90% 0 mm 0 W/m2
07:54 -3.5 °C -4.9 °C 1020.2 hPa NNW 0.5 km/h 4.8 km/h 90% 0 mm 0 W/m2
07:59 -3.5 °C -4.9 °C 1020.2 hPa NNW 0.3 km/h 4.8 km/h 90% 0 mm 0 W/m2
08:04 -3.5 °C -4.9 °C 1019.9 hPa Calm   4.8 km/h 90% 0 mm 5 W/m2
08:09 -3.5 °C -4.9 °C 1019.9 hPa Calm     90% 0 mm 5 W/m2
08:14 -3.4 °C -4.9 °C 1019.9 hPa Calm     90% 0 mm 7 W/m2
08:19 -3.4 °C -4.8 °C 1019.9 hPa Calm   1.6 km/h 90% 0 mm 9 W/m2
08:24 -3.4 °C -4.8 °C 1019.9 hPa Calm   1.6 km/h 90% 0 mm 16 W/m2
08:29 -3.4 °C -4.8 °C 1019.9 hPa Calm   1.6 km/h 90% 0 mm 16 W/m2
08:34 -3.4 °C -4.8 °C 1019.9 hPa Calm   1.6 km/h 90% 0 mm 16 W/m2
08:39 -3.4 °C -4.8 °C 1020.2 hPa NNW 0.5 km/h 4.8 km/h 90% 0 mm 19 W/m2
08:44 -3.4 °C -4.8 °C 1020.2 hPa North 1.3 km/h 6.4 km/h 90% 0 mm 23 W/m2
08:49 -3.4 °C -4.8 °C 1020.2 hPa North 0.2 km/h 6.4 km/h 90% 0 mm 19 W/m2
08:54 -3.3 °C -4.7 °C 1020.2 hPa Calm   6.4 km/h 90% 0 mm 21 W/m2
08:59 -3.3 °C -4.7 °C 1020.2 hPa Calm   6.4 km/h 90% 0 mm 21 W/m2
09:04 -3.3 °C -4.7 °C 1020.2 hPa North 0.3 km/h 6.4 km/h 90% 0 mm 19 W/m2
09:09 -3.3 °C -4.7 °C 1020.2 hPa Calm   3.2 km/h 90% 0 mm 19 W/m2
09:14 -3.3 °C -4.7 °C 1020.2 hPa Calm   3.2 km/h 90% 0 mm 21 W/m2
09:19 -3.3 °C -4.7 °C 1020.2 hPa North 1.1 km/h 3.2 km/h 90% 0 mm 21 W/m2
09:24 -3.3 °C -4.7 °C 1020.2 hPa North 1.3 km/h 6.4 km/h 90% 0 mm 21 W/m2
09:29 -3.3 °C -4.7 °C 1020.5 hPa Calm   6.4 km/h 90% 0 mm 16 W/m2
09:34 -3.3 °C -4.7 °C 1020.5 hPa NNE 1.8 km/h 8 km/h 90% 0 mm 16 W/m2
09:39 -3.3 °C -4.7 °C 1020.5 hPa NE 2.6 km/h 8 km/h 90% 0 mm 16 W/m2
09:44 -3.3 °C -4.7 °C 1020.5 hPa NE 0.8 km/h 8 km/h 90% 0 mm 16 W/m2
09:49 -3.3 °C -4.7 °C 1020.2 hPa NE 1.4 km/h 8 km/h 90% 0 mm 19 W/m2
09:54 -3.3 °C -4.7 °C 1020.5 hPa NE 3.1 km/h 11.3 km/h 90% 0 mm 19 W/m2
09:59 -3.3 °C -4.7 °C 1020.5 hPa NE 1.9 km/h 11.3 km/h 90% 0 mm 14 W/m2
10:04 -3.3 °C -4.7 °C 1020.5 hPa NE 2.9 km/h 11.3 km/h 90% 0 mm 18 W/m2
10:09 -3.3 °C -4.7 °C 1020.5 hPa NE 1.6 km/h 9.7 km/h 90% 0 mm 18 W/m2
10:14 -3.3 °C -4.7 °C 1020.5 hPa NE 1.3 km/h 9.7 km/h 90% 0 mm 19 W/m2
10:19 -3.3 °C -4.7 °C 1020.2 hPa NE 1.3 km/h 9.7 km/h 90% 0 mm 19 W/m2
10:24 -3.3 °C -4.7 °C 1020.2 hPa NE 1 km/h 9.7 km/h 90% 0 mm 21 W/m2
10:29 -3.3 °C -4.9 °C 1020.2 hPa NE 2.9 km/h 9.7 km/h 89% 0 mm 21 W/m2
10:34 -3.3 °C -4.9 °C 1020.2 hPa NE 0.8 km/h 9.7 km/h 89% 0 mm 19 W/m2
10:39 -3.3 °C -4.8 °C 1020.2 hPa NE 1.8 km/h 8 km/h 89% 0 mm 19 W/m2
10:44 -3.3 °C -4.8 °C 1020.2 hPa NE 0.2 km/h 8 km/h 89% 0 mm 21 W/m2
10:49 -3.2 °C -4.8 °C 1019.9 hPa NE 0.5 km/h 8 km/h 89% 0 mm 30 W/m2
10:54 -3.2 °C -4.7 °C 1019.9 hPa NE 0.8 km/h 8 km/h 89% 0 mm 28 W/m2
10:59 -3.1 °C -4.7 °C 1019.9 hPa NE 0.2 km/h 8 km/h 89% 0 mm 19 W/m2
11:04 -3.1 °C -4.4 °C 1019.5 hPa NE 0.2 km/h 8 km/h 90% 0 mm 19 W/m2
11:09 -3 °C -4.6 °C 1019.5 hPa NE 0.5 km/h 4.8 km/h 89.1% 0 mm 25 W/m2
11:14 -2.9 °C -4.5 °C 1019.2 hPa NE 0.2 km/h 4.8 km/h 89% 0 mm 30 W/m2
11:19 -2.9 °C -4.4 °C 1019.2 hPa NE 0.5 km/h 4.8 km/h 89% 0 mm 30 W/m2
11:24 -2.8 °C -4.4 °C 1018.8 hPa Calm   4.8 km/h 89% 0 mm 37 W/m2
11:29 -2.8 °C -4.4 °C 1018.8 hPa Calm   4.8 km/h 89% 0 mm 39 W/m2
11:34 -2.8 °C -4.3 °C 1018.8 hPa NE 0.8 km/h 4.8 km/h 89% 0 mm 33 W/m2
11:39 -2.8 °C -4.4 °C 1018.5 hPa NE 0.5 km/h 4.8 km/h 88.2% 0 mm 44 W/m2
11:44 -2.8 °C -4.4 °C 1018.5 hPa NE 0.8 km/h 4.8 km/h 88% 0 mm 47 W/m2
11:49 -2.7 °C -4.3 °C 1018.5 hPa NE 0.5 km/h 4.8 km/h 88% 0 mm 35 W/m2
11:54 -2.6 °C -4.3 °C 1018.5 hPa NE 0.3 km/h 4.8 km/h 88% 0 mm 37 W/m2
11:59 -2.5 °C -4.2 °C 1018.5 hPa NE 0.3 km/h 4.8 km/h 88% 0 mm 39 W/m2
12:00 -2.4 °C -4.2 °C 1018.5 hPa NE 3.2 km/h 4.8 km/h 88% 0 mm 32 W/m2
12:09 -2.4 °C -4.3 °C 1018.2 hPa NE 1.3 km/h 6.4 km/h 87% 0 mm 53 W/m2
12:14 -2.4 °C -4.3 °C 1018.5 hPa NE 0.8 km/h 6.4 km/h 87% 0 mm 40 W/m2
12:19 -2.4 °C -4.2 °C 1018.5 hPa NE 1.3 km/h 6.4 km/h 87% 0 mm 39 W/m2
12:24 -2.3 °C -4.2 °C 1018.5 hPa NE 0.5 km/h 6.4 km/h 87% 0 mm 35 W/m2
12:29 -2.3 °C -4.2 °C 1018.5 hPa NE 2.1 km/h 6.4 km/h 86.8% 0 mm 39 W/m2
12:34 -2.3 °C -4.3 °C 1018.5 hPa NE 2.3 km/h 6.4 km/h 86% 0 mm 40 W/m2
12:39 -2.2 °C -4.3 °C 1018.5 hPa NE 1.1 km/h 6.4 km/h 86% 0 mm 40 W/m2
12:44 -2.2 °C -4.2 °C 1018.5 hPa Calm   6.4 km/h 86% 0 mm 33 W/m2
12:49 -2.2 °C -4.2 °C 1018.5 hPa NE 1.4 km/h 6.4 km/h 86% 0 mm 30 W/m2
12:54 -2.2 °C -4.2 °C 1018.5 hPa NE 0.5 km/h 6.4 km/h 86% 0 mm 30 W/m2
12:59 -2.2 °C -4.2 °C 1017.8 hPa Calm   6.4 km/h 86% 0 mm 32 W/m2
13:04 -2.1 °C -4.1 °C 1018.2 hPa NE 0.5 km/h 6.4 km/h 86% 0 mm 32 W/m2
13:09 -2.1 °C -4.2 °C 1018.2 hPa Calm   3.2 km/h 86% 0 mm 28 W/m2
13:14 -2.1 °C -4.2 °C 1017.8 hPa Calm   3.2 km/h 86% 0 mm 33 W/m2
13:19 -2.1 °C -4.3 °C 1017.8 hPa Calm   3.2 km/h 85.1% 0 mm 42 W/m2
13:24 -2.1 °C -4.1 °C 1017.5 hPa NE 1.1 km/h 6.4 km/h 85.9% 0 mm 47 W/m2
13:29 -2.1 °C -4.2 °C 1017.5 hPa NE 1.3 km/h 6.4 km/h 85% 0 mm 47 W/m2
13:34 -2 °C -4.2 °C 1017.2 hPa NE 0.2 km/h 6.4 km/h 85% 0 mm 47 W/m2
13:39 -1.9 °C -4.1 °C 1017.2 hPa NE 1.3 km/h 6.4 km/h 85% 0 mm 54 W/m2
13:44 -1.8 °C -4 °C 1017.2 hPa NE 1.4 km/h 6.4 km/h 85% 0 mm 70 W/m2
13:49 -1.7 °C -3.9 °C 1016.8 hPa NE 1.6 km/h 6.4 km/h 85% 0 mm 69 W/m2
13:54 -1.7 °C -3.8 °C 1016.8 hPa NE 1.6 km/h 8 km/h 85% 0 mm 54 W/m2
13:59 -1.6 °C -3.8 °C 1016.8 hPa NE 0.5 km/h 8 km/h 85% 0 mm 51 W/m2
14:04 -1.5 °C -3.7 °C 1016.8 hPa NE 2.1 km/h 9.7 km/h 84.8% 0 mm 42 W/m2
14:09 -1.5 °C -3.9 °C 1016.8 hPa NE 0.3 km/h 9.7 km/h 84% 0 mm 42 W/m2
14:14 -1.5 °C -3.8 °C 1016.8 hPa NE 1.4 km/h 9.7 km/h 84% 0 mm 37 W/m2
14:19 -1.5 °C -3.8 °C 1016.8 hPa Calm   9.7 km/h 84% 0 mm 35 W/m2
14:24 -1.5 °C -3.8 °C 1016.8 hPa Calm   9.7 km/h 84% 0 mm 32 W/m2
14:29 -1.5 °C -3.8 °C 1016.5 hPa NE 0.2 km/h 9.7 km/h 84% 0 mm 32 W/m2
14:34 -1.4 °C -3.8 °C 1016.8 hPa NE 0.6 km/h 9.7 km/h 84% 0 mm 25 W/m2
14:39 -1.5 °C -3.8 °C 1017.2 hPa Calm   4.8 km/h 84% 0 mm 21 W/m2
14:44 -1.6 °C -3.9 °C 1017.5 hPa NE 0.8 km/h 4.8 km/h 83.8% 0 mm 21 W/m2
14:49 -1.5 °C -3.8 °C 1017.5 hPa NE 1.8 km/h 6.4 km/h 84% 0 mm 23 W/m2
14:54 -1.5 °C -3.8 °C 1017.5 hPa Calm   6.4 km/h 84% 0 mm 21 W/m2
14:59 -1.5 °C -3.8 °C 1017.8 hPa NE 1.1 km/h 8 km/h 84% 0 mm 18 W/m2
15:04 -1.6 °C -3.9 °C 1018.2 hPa NE 1.9 km/h 8 km/h 84% 0 mm 16 W/m2
15:09 -1.6 °C -3.9 °C 1018.2 hPa NE 1.8 km/h 6.4 km/h 84% 0 mm 11 W/m2
15:14 -1.6 °C -3.9 °C 1017.8 hPa NE 0.5 km/h 6.4 km/h 84% 0 mm 12 W/m2
15:19 -1.6 °C -3.9 °C 1017.8 hPa Calm   6.4 km/h 84% 0 mm 12 W/m2
15:24 -1.5 °C -3.8 °C 1018.2 hPa NE 0.5 km/h 6.4 km/h 84.2% 0 mm 9 W/m2
15:29 -1.5 °C -3.8 °C 1018.2 hPa NE 0.2 km/h 6.4 km/h 84.5% 0 mm 9 W/m2
15:34 -1.5 °C -3.8 °C 1018.2 hPa NE 1.6 km/h 6.4 km/h 84.1% 0 mm 9 W/m2
15:39 -1.5 °C -3.9 °C 1017.8 hPa NE 0.8 km/h 4.8 km/h 84% 0 mm 9 W/m2
15:44 -1.6 °C -3.9 °C 1017.5 hPa Calm   4.8 km/h 84% 0 mm 9 W/m2
15:49 -1.6 °C -4 °C 1017.5 hPa NE 1.1 km/h 4.8 km/h 84% 0 mm 11 W/m2
15:54 -1.7 °C -4 °C 1017.5 hPa NE 1 km/h 6.4 km/h 84% 0 mm 11 W/m2
15:59 -1.7 °C -4.1 °C 1017.5 hPa NE 0.6 km/h 6.4 km/h 84% 0 mm 5 W/m2
16:00 -1.7 °C -4 °C 1017.2 hPa Calm   6.4 km/h 84% 0 mm 5 W/m2
16:09 -1.7 °C -4.1 °C 1017.5 hPa Calm     84% 0 mm 0 W/m2
16:14 -1.7 °C -4.1 °C 1017.5 hPa Calm   1.6 km/h 84% 0 mm 0 W/m2
16:19 -1.7 °C -4.1 °C 1017.5 hPa Calm   1.6 km/h 84% 0 mm 0 W/m2
16:24 -1.8 °C -4.1 °C 1017.5 hPa Calm   1.6 km/h 84% 0 mm 0 W/m2
16:29 -1.8 °C -4.1 °C 1017.2 hPa Calm   1.6 km/h 84% 0 mm 0 W/m2
16:34 -1.8 °C -4.1 °C 1017.2 hPa NE 0.8 km/h 6.4 km/h 84% 0 mm 0 W/m2
16:39 -1.8 °C -3.9 °C 1017.2 hPa NE 0.6 km/h 6.4 km/h 85% 0 mm 0 W/m2
16:44 -1.8 °C -3.9 °C 1016.8 hPa NE 0.2 km/h 6.4 km/h 85% 0 mm 0 W/m2
16:49 -1.8 °C -3.9 °C 1016.8 hPa Calm   6.4 km/h 85% 0 mm 0 W/m2
16:54 -1.8 °C -4.1 °C 1016.8 hPa Calm   6.4 km/h 84.3% 0 mm 0 W/m2
16:59 -1.8 °C -4.2 °C 1016.8 hPa NE 0.2 km/h 6.4 km/h 84% 0 mm 0 W/m2
17:04 -1.9 °C -4.2 °C 1016.5 hPa Calm   6.4 km/h 84% 0 mm 0 W/m2
17:09 -1.9 °C -4.3 °C 1016.5 hPa Calm     84% 0 mm 0 W/m2
17:14 -1.9 °C -4.2 °C 1016.5 hPa Calm     84.8% 0 mm 0 W/m2
17:19 -1.9 °C -4.1 °C 1016.5 hPa NE 0.2 km/h 3.2 km/h 85% 0 mm 0 W/m2
17:24 -1.9 °C -4.2 °C 1016.1 hPa Calm   3.2 km/h 85% 0 mm 0 W/m2
17:29 -2 °C -4.2 °C 1016.1 hPa Calm   3.2 km/h 85% 0 mm 0 W/m2
17:34 -2 °C -4.2 °C 1016.1 hPa Calm   3.2 km/h 85% 0 mm 0 W/m2
17:39 -2.1 °C -4.2 °C 1016.1 hPa Calm     85% 0 mm 0 W/m2
17:44 -2 °C -4.2 °C 1016.1 hPa Calm     85% 0 mm 0 W/m2
17:49 -2 °C -4.2 °C 1016.1 hPa Calm     85% 0 mm 0 W/m2
17:54 -2 °C -4.1 °C 1016.1 hPa Calm     85.8% 0 mm 0 W/m2
17:59 -2 °C -4 °C 1016.1 hPa Calm     86% 0 mm 0 W/m2
18:04 -2 °C -4 °C 1015.8 hPa Calm     86% 0 mm 0 W/m2
18:09 -2 °C -4 °C 1015.8 hPa Calm     86% 0 mm 0 W/m2
18:14 -2 °C -4 °C 1015.8 hPa Calm     86% 0 mm 0 W/m2
18:19 -2 °C -4 °C 1015.8 hPa Calm     86% 0 mm 0 W/m2
18:24 -2.1 °C -4.1 °C 1016.1 hPa Calm     86% 0 mm 0 W/m2
18:29 -2 °C -4.1 °C 1016.1 hPa Calm     86% 0 mm 0 W/m2
18:34 -2 °C -4 °C 1016.1 hPa Calm     86% 0 mm 0 W/m2
18:39 -1.9 °C -3.9 °C 1016.5 hPa Calm     86.4% 0 mm 0 W/m2
18:44 -1.9 °C -3.8 °C 1016.5 hPa Calm   1.6 km/h 86.6% 0 mm 0 W/m2
18:49 -1.8 °C -3.7 °C 1016.5 hPa Calm   1.6 km/h 87% 0 mm 0 W/m2
18:54 -1.8 °C -3.8 °C 1016.8 hPa Calm   1.6 km/h 86.7% 0 mm 0 W/m2
18:59 -1.8 °C -3.7 °C 1016.8 hPa Calm   1.6 km/h 87% 0 mm 0 W/m2
19:04 -1.8 °C -3.8 °C 1016.5 hPa Calm   1.6 km/h 86.2% 0 mm 0 W/m2
19:09 -1.8 °C -3.8 °C 1016.5 hPa Calm     86% 0 mm 0 W/m2
19:14 -1.8 °C -3.8 °C 1016.5 hPa Calm     86.5% 0 mm 0 W/m2
19:19 -1.8 °C -3.7 °C 1016.5 hPa Calm     87% 0 mm 0 W/m2
19:24 -1.8 °C -3.7 °C 1016.1 hPa Calm     87% 0 mm 0 W/m2
19:29 -1.8 °C -3.8 °C 1016.5 hPa Calm     86.5% 0 mm 0 W/m2
19:33 -1.8 °C -3.7 °C 1016.1 hPa Calm     86.7% 0 mm 0 W/m2
Hartford County Weather
Compliments of Weather Underground - 2 mb